createdAt,value
2023-07-29T00:00:27.004Z,95.39
2023-07-29T00:01:26.919Z,94.89
2023-07-29T00:02:27.911Z,94.68
2023-07-29T00:03:26.960Z,94.89
2023-07-29T00:04:26.883Z,95.29
2023-07-29T00:05:26.926Z,94.98
2023-07-29T00:06:26.872Z,95.09
2023-07-29T00:07:27.816Z,95.09
2023-07-29T00:08:26.800Z,95.09
2023-07-29T00:09:26.792Z,94.89
2023-07-29T00:10:26.908Z,94.98
2023-07-29T00:11:26.804Z,94.89
2023-07-29T00:12:27.748Z,94.98
2023-07-29T00:13:26.750Z,94.83
2023-07-29T00:14:26.748Z,94.93
2023-07-29T00:15:26.732Z,95.13
2023-07-29T00:16:26.789Z,95.43
2023-07-29T00:17:26.733Z,95.64
2023-07-29T00:18:27.664Z,95.84
2023-07-29T00:19:26.676Z,96.04
2023-07-29T00:20:26.693Z,95.94
2023-07-29T00:21:26.651Z,96.14
2023-07-29T00:22:26.693Z,96.14
2023-07-29T00:26:19.558Z,95.84
2023-07-29T00:27:19.520Z,95.84
2023-07-29T00:28:22.256Z,96.04
2023-07-29T00:29:19.525Z,96.19
2023-07-29T00:30:20.511Z,96.19
2023-07-29T00:31:19.516Z,96.28
2023-07-29T00:32:19.442Z,96.39
2023-07-29T00:33:19.553Z,96.28
2023-07-29T00:34:19.409Z,96.48
2023-07-29T00:35:19.362Z,96.39
2023-07-29T00:36:19.395Z,96.39
2023-07-29T00:37:19.348Z,96.48
2023-07-29T00:38:19.351Z,96.08
2023-07-29T00:39:19.323Z,95.78
2023-07-29T00:40:19.439Z,95.58
2023-07-29T00:41:20.276Z,95.48
2023-07-29T00:42:19.291Z,95.58
2023-07-29T00:43:19.337Z,95.93
2023-07-29T00:44:19.272Z,96.23
2023-07-29T00:45:19.257Z,96.43
2023-07-29T00:46:20.351Z,96.43
2023-07-29T00:47:19.237Z,96.73
2023-07-29T00:48:19.328Z,97.03
2023-07-29T00:49:19.206Z,96.83
2023-07-29T00:50:19.228Z,96.83
2023-07-29T00:51:19.182Z,96.83
2023-07-29T00:52:20.138Z,96.93
2023-07-29T00:53:19.190Z,97.03
2023-07-29T00:54:19.177Z,97.03
2023-07-29T00:55:19.143Z,96.93
2023-07-29T00:56:19.211Z,97.13
2023-07-29T00:57:19.505Z,97.13
2023-07-29T00:58:25.342Z,97.03
2023-07-29T00:59:19.094Z,96.93
2023-07-29T01:00:19.071Z,97.13
2023-07-29T01:01:19.086Z,97.13
2023-07-29T01:02:19.117Z,97.24
2023-07-29T01:03:19.161Z,97.13
2023-07-29T01:04:20.089Z,96.93
2023-07-29T01:05:19.031Z,96.73
2023-07-29T01:06:19.028Z,96.73
2023-07-29T01:07:19.197Z,96.73
2023-07-29T01:08:18.988Z,96.43
2023-07-29T01:09:19.913Z,96.33
2023-07-29T01:10:19.154Z,96.33
2023-07-29T01:11:18.941Z,96.43
2023-07-29T01:12:18.943Z,96.53
2023-07-29T01:13:18.940Z,96.53
2023-07-29T01:14:18.884Z,96.63
2023-07-29T01:15:20.809Z,96.63
2023-07-29T01:16:18.953Z,96.73
2023-07-29T01:17:18.817Z,96.63
2023-07-29T01:18:18.867Z,96.63
2023-07-29T01:19:18.812Z,96.33
2023-07-29T01:20:19.732Z,96.23
2023-07-29T01:21:18.838Z,96.33
2023-07-29T01:22:18.771Z,96.33
2023-07-29T01:23:18.878Z,96.13
2023-07-29T01:24:18.749Z,96.13
2023-07-29T01:25:19.748Z,96.08
2023-07-29T01:26:18.747Z,96.03
2023-07-29T01:27:18.702Z,95.78
2023-07-29T01:28:18.802Z,95.88
2023-07-29T01:29:18.706Z,95.68
2023-07-29T01:30:19.663Z,95.68
2023-07-29T01:31:18.709Z,95.78
2023-07-29T01:32:18.647Z,95.78
2023-07-29T01:33:18.617Z,95.58
2023-07-29T01:34:18.670Z,95.48
2023-07-29T01:35:18.615Z,95.38
2023-07-29T01:36:19.549Z,95.48
2023-07-29T01:37:18.585Z,95.28
2023-07-29T01:38:18.843Z,94.78
2023-07-29T01:39:18.540Z,94.78
2023-07-29T01:40:18.550Z,94.07
2023-07-29T01:41:18.641Z,93.97
2023-07-29T01:42:19.453Z,93.87
2023-07-29T01:43:18.563Z,93.77
2023-07-29T01:44:18.500Z,94.07
2023-07-29T01:45:18.445Z,94.21
2023-07-29T01:46:18.508Z,94.62
2023-07-29T01:47:18.495Z,94.87
2023-07-29T01:48:19.402Z,95.12
2023-07-29T01:49:18.444Z,95.07
2023-07-29T01:50:18.425Z,94.67
2023-07-29T01:51:18.396Z,94.67
2023-07-29T01:52:18.460Z,94.78
2023-07-29T01:53:18.361Z,94.57
2023-07-29T01:54:19.301Z,94.47
2023-07-29T01:55:18.469Z,94.47
2023-07-29T01:56:18.318Z,94.47
2023-07-29T01:57:18.323Z,94.78
2023-07-29T01:58:18.333Z,94.78
2023-07-29T01:59:19.225Z,94.57
2023-07-29T02:00:18.314Z,94.47
2023-07-29T02:01:18.378Z,94.37
2023-07-29T02:02:18.303Z,93.97
2023-07-29T02:03:18.308Z,94.07
2023-07-29T02:04:19.194Z,94.27
2023-07-29T02:05:18.287Z,94.37
2023-07-29T02:06:18.239Z,94.37
2023-07-29T02:07:18.208Z,94.47
2023-07-29T02:08:18.285Z,94.27
2023-07-29T02:09:18.290Z,94.27
2023-07-29T02:10:19.086Z,94.67
2023-07-29T02:11:18.152Z,94.47
2023-07-29T02:12:18.146Z,94.47
2023-07-29T02:13:18.104Z,94.37
2023-07-29T02:14:18.162Z,94.37
2023-07-29T02:15:18.108Z,94.21
2023-07-29T02:16:24.397Z,94.42
2023-07-29T02:17:18.081Z,94.52
2023-07-29T02:18:18.076Z,94.72
2023-07-29T02:19:18.077Z,94.87
2023-07-29T02:20:18.036Z,94.92
2023-07-29T02:21:18.011Z,94.72
2023-07-29T02:22:24.300Z,94.78
2023-07-29T02:23:18.063Z,94.87
2023-07-29T02:24:17.966Z,94.47
2023-07-29T02:25:18.043Z,94.21
2023-07-29T02:26:18.035Z,94.01
2023-07-29T02:27:24.227Z,94.01
2023-07-29T02:28:17.993Z,94.12
2023-07-29T02:29:17.935Z,94.12
2023-07-29T02:30:17.901Z,94.21
2023-07-29T02:31:18.232Z,94.42
2023-07-29T02:32:17.883Z,94.62
2023-07-29T02:33:24.292Z,94.52
2023-07-29T02:34:17.839Z,94.62
2023-07-29T02:35:17.839Z,94.62
2023-07-29T02:36:17.906Z,94.52
2023-07-29T02:37:17.836Z,94.82
2023-07-29T02:38:18.833Z,95.02
2023-07-29T02:39:17.782Z,94.92
2023-07-29T02:40:17.828Z,94.87
2023-07-29T02:41:17.861Z,94.87
2023-07-29T02:42:17.790Z,94.96
2023-07-29T02:43:17.821Z,95.02
2023-07-29T02:44:18.688Z,94.92
2023-07-29T02:45:17.693Z,94.72
2023-07-29T02:46:17.694Z,94.72
2023-07-29T02:47:17.712Z,94.72
2023-07-29T02:48:17.659Z,94.62
2023-07-29T02:49:17.738Z,94.32
2023-07-29T02:50:18.581Z,94.32
2023-07-29T02:51:17.640Z,94.52
2023-07-29T02:52:17.618Z,94.42
2023-07-29T02:53:18.314Z,94.42
2023-07-29T02:54:17.732Z,94.42
2023-07-29T02:55:18.613Z,94.32
2023-07-29T02:56:17.554Z,94.21
2023-07-29T02:57:17.534Z,94.01
2023-07-29T02:58:17.646Z,94.21
2023-07-29T02:59:17.530Z,94.56
2023-07-29T03:00:17.524Z,94.67
2023-07-29T03:01:18.522Z,94.76
2023-07-29T03:02:17.568Z,94.72
2023-07-29T03:03:17.635Z,94.67
2023-07-29T03:04:17.482Z,94.82
2023-07-29T03:05:17.476Z,94.62
2023-07-29T03:06:18.462Z,94.52
2023-07-29T03:07:17.448Z,94.32
2023-07-29T03:08:17.423Z,94.16
2023-07-29T03:09:17.562Z,94.26
2023-07-29T03:10:17.377Z,94.36
2023-07-29T03:11:18.304Z,94.26
2023-07-29T03:12:17.422Z,94.26
2023-07-29T03:13:17.373Z,94.36
2023-07-29T03:14:17.325Z,94.26
2023-07-29T03:15:17.341Z,94.36
2023-07-29T03:16:17.351Z,94.36
2023-07-29T03:17:18.249Z,94.06
2023-07-29T03:18:17.325Z,94.16
2023-07-29T03:19:17.286Z,94.26
2023-07-29T03:20:17.264Z,94.46
2023-07-29T03:21:17.238Z,94.36
2023-07-29T03:22:18.128Z,94.26
2023-07-29T03:23:17.216Z,94.26
2023-07-29T03:24:17.192Z,94.06
2023-07-29T03:25:17.178Z,94.16
2023-07-29T03:26:17.173Z,94.06
2023-07-29T03:27:17.161Z,94.16
2023-07-29T03:28:18.144Z,93.96
2023-07-29T03:29:17.138Z,93.96
2023-07-29T03:30:17.111Z,94.26
2023-07-29T03:31:17.228Z,94.06
2023-07-29T03:32:17.186Z,93.96
2023-07-29T03:33:17.079Z,93.96
2023-07-29T03:34:18.030Z,93.96
2023-07-29T03:35:17.071Z,93.96
2023-07-29T03:36:17.068Z,93.76
2023-07-29T03:37:17.053Z,93.86
2023-07-29T03:38:17.025Z,93.76
2023-07-29T03:39:16.990Z,93.86
2023-07-29T03:40:17.974Z,93.76
2023-07-29T03:41:17.108Z,93.86
2023-07-29T03:42:17.020Z,93.96
2023-07-29T03:43:16.996Z,93.96
2023-07-29T03:44:16.934Z,94.06
2023-07-29T03:45:17.880Z,94.16
2023-07-29T03:46:16.932Z,93.86
2023-07-29T03:47:16.926Z,93.46
2023-07-29T03:48:16.900Z,93.66
2023-07-29T03:49:16.899Z,93.70
2023-07-29T03:50:16.914Z,93.90
2023-07-29T03:51:17.771Z,94.10
2023-07-29T03:52:16.826Z,94.10
2023-07-29T03:53:16.823Z,94.31
2023-07-29T03:54:16.798Z,93.96
2023-07-29T03:55:16.797Z,93.80
2023-07-29T03:56:17.708Z,93.70
2023-07-29T03:57:16.771Z,94.00
2023-07-29T03:58:16.763Z,94.20
2023-07-29T03:59:16.759Z,94.20
2023-07-29T04:00:16.778Z,94.00
2023-07-29T04:01:17.736Z,94.20
2023-07-29T04:02:16.751Z,94.20
2023-07-29T04:03:16.672Z,94.31
2023-07-29T04:04:16.829Z,94.40
2023-07-29T04:05:16.779Z,94.20
2023-07-29T04:06:17.973Z,94.20
2023-07-29T04:07:16.716Z,94.20
2023-07-29T04:08:16.680Z,94.10
2023-07-29T04:09:16.662Z,94.10
2023-07-29T04:10:16.684Z,94.00
2023-07-29T04:11:17.699Z,94.00
2023-07-29T04:12:16.601Z,93.90
2023-07-29T04:13:16.598Z,93.90
2023-07-29T04:14:16.618Z,93.96
2023-07-29T04:15:16.534Z,93.86
2023-07-29T04:16:16.558Z,94.06
2023-07-29T04:17:17.444Z,93.86
2023-07-29T04:18:16.530Z,93.86
2023-07-29T04:19:16.907Z,93.76
2023-07-29T04:20:16.473Z,93.76
2023-07-29T04:21:16.503Z,93.76
2023-07-29T04:22:16.530Z,93.55
2023-07-29T04:23:18.077Z,93.86
2023-07-29T04:24:16.403Z,93.55
2023-07-29T04:25:16.470Z,93.46
2023-07-29T04:26:16.397Z,93.46
2023-07-29T04:27:16.410Z,93.46
2023-07-29T04:28:16.450Z,93.26
2023-07-29T04:29:17.349Z,93.15
2023-07-29T04:30:16.421Z,93.05
2023-07-29T04:31:16.376Z,93.05
2023-07-29T04:32:16.340Z,93.31
2023-07-29T04:33:16.326Z,93.51
2023-07-29T04:34:16.307Z,93.51
2023-07-29T04:35:17.256Z,93.31
2023-07-29T04:36:16.237Z,93.11
2023-07-29T04:37:16.333Z,93.11
2023-07-29T04:38:16.241Z,93.31
2023-07-29T04:39:16.248Z,93.21
2023-07-29T04:40:16.203Z,93.11
2023-07-29T04:41:17.187Z,93.11
2023-07-29T04:42:16.168Z,93.01
2023-07-29T04:43:16.166Z,93.01
2023-07-29T04:44:16.227Z,92.60
2023-07-29T04:45:16.242Z,92.71
2023-07-29T04:46:17.184Z,93.05
2023-07-29T04:47:16.135Z,93.26
2023-07-29T04:48:16.107Z,93.26
2023-07-29T04:49:16.105Z,93.35
2023-07-29T04:50:16.099Z,93.55
2023-07-29T04:51:17.029Z,93.55
2023-07-29T04:52:16.132Z,93.86
2023-07-29T04:53:16.034Z,94.06
2023-07-29T04:54:16.003Z,93.96
2023-07-29T04:55:16.013Z,93.96
2023-07-29T04:56:18.410Z,94.06
2023-07-29T04:57:16.954Z,94.26
2023-07-29T04:58:16.037Z,94.16
2023-07-29T04:59:15.978Z,94.06
2023-07-29T05:00:15.960Z,93.96
2023-07-29T05:01:16.001Z,93.96
2023-07-29T05:02:16.886Z,93.96
2023-07-29T05:03:15.891Z,93.96
2023-07-29T05:04:15.927Z,93.96
2023-07-29T05:05:15.860Z,94.16
2023-07-29T05:06:15.867Z,94.40
2023-07-29T05:07:16.843Z,94.60
2023-07-29T05:08:15.839Z,94.71
2023-07-29T05:09:15.867Z,94.71
2023-07-29T05:10:15.796Z,94.91
2023-07-29T05:11:15.780Z,95.21
2023-07-29T05:12:16.709Z,95.31
2023-07-29T05:13:15.822Z,95.11
2023-07-29T05:14:15.790Z,95.31
2023-07-29T05:15:15.769Z,95.41
2023-07-29T05:16:15.802Z,95.11
2023-07-29T05:17:15.741Z,95.21
2023-07-29T05:18:16.637Z,95.31
2023-07-29T05:19:15.707Z,95.51
2023-07-29T05:20:15.746Z,95.41
2023-07-29T05:21:15.695Z,95.31
2023-07-29T05:22:15.658Z,95.47
2023-07-29T05:23:16.565Z,95.67
2023-07-29T05:24:15.663Z,95.67
2023-07-29T05:25:15.632Z,95.57
2023-07-29T05:26:15.680Z,95.47
2023-07-29T05:27:15.687Z,95.32
2023-07-29T05:28:15.620Z,95.22
2023-07-29T05:29:16.521Z,94.62
2023-07-29T05:30:15.621Z,94.32
2023-07-29T05:31:15.697Z,94.12
2023-07-29T05:32:15.578Z,94.01
2023-07-29T05:33:15.598Z,94.01
2023-07-29T05:34:16.653Z,93.91
2023-07-29T05:35:15.488Z,94.01
2023-07-29T05:36:15.471Z,94.12
2023-07-29T05:37:15.472Z,94.32
2023-07-29T05:38:15.470Z,94.32
2023-07-29T05:39:15.468Z,94.52
2023-07-29T05:40:16.385Z,94.76
2023-07-29T05:41:15.554Z,94.87
2023-07-29T05:42:15.385Z,94.96
2023-07-29T05:43:15.425Z,94.96
2023-07-29T05:44:15.404Z,95.17
2023-07-29T05:45:15.386Z,95.07
2023-07-29T05:46:16.288Z,94.92
2023-07-29T05:47:16.800Z,95.02
2023-07-29T05:48:15.549Z,94.92
2023-07-29T05:49:15.312Z,94.92
2023-07-29T05:50:15.313Z,95.02
2023-07-29T05:51:15.307Z,94.92
2023-07-29T05:52:16.220Z,94.82
2023-07-29T05:53:15.236Z,94.62
2023-07-29T05:54:15.242Z,94.52
2023-07-29T05:55:16.020Z,94.32
2023-07-29T05:56:15.242Z,94.37
2023-07-29T05:57:15.242Z,94.27
2023-07-29T05:58:16.132Z,94.27
2023-07-29T05:59:15.235Z,94.07
2023-07-29T06:00:15.228Z,94.17
2023-07-29T06:01:15.250Z,94.27
2023-07-29T06:02:15.136Z,94.57
2023-07-29T06:03:16.137Z,94.57
2023-07-29T06:04:15.123Z,94.47
2023-07-29T06:05:15.097Z,94.47
2023-07-29T06:06:15.120Z,94.17
2023-07-29T06:07:15.135Z,94.17
2023-07-29T06:08:15.991Z,94.13
2023-07-29T06:09:15.050Z,94.23
2023-07-29T06:10:15.042Z,94.13
2023-07-29T06:11:15.083Z,94.02
2023-07-29T06:12:15.109Z,93.93
2023-07-29T06:13:15.989Z,94.02
2023-07-29T06:14:15.004Z,93.73
2023-07-29T06:15:15.004Z,93.42
2023-07-29T06:16:15.063Z,93.42
2023-07-29T06:17:15.046Z,93.18
2023-07-29T06:18:14.934Z,93.28
2023-07-29T06:19:16.130Z,93.08
2023-07-29T06:20:14.954Z,93.08
2023-07-29T06:21:14.911Z,92.97
2023-07-29T06:22:14.854Z,92.77
2023-07-29T06:23:14.856Z,92.37
2023-07-29T06:24:15.837Z,92.47
2023-07-29T06:25:14.903Z,92.57
2023-07-29T06:26:14.941Z,92.47
2023-07-29T06:27:14.805Z,92.37
2023-07-29T06:28:14.888Z,92.43
2023-07-29T06:29:16.472Z,92.13
2023-07-29T06:30:14.783Z,92.13
2023-07-29T06:31:14.850Z,92.13
2023-07-29T06:32:14.745Z,91.83
2023-07-29T06:33:14.750Z,91.42
2023-07-29T06:34:15.710Z,91.52
2023-07-29T06:35:14.755Z,91.63
2023-07-29T06:36:14.695Z,91.72
2023-07-29T06:37:14.774Z,91.42
2023-07-29T06:38:14.728Z,91.32
2023-07-29T06:39:15.650Z,91.22
2023-07-29T06:40:14.659Z,91.38
2023-07-29T06:41:16.444Z,91.28
2023-07-29T06:42:14.627Z,91.38
2023-07-29T06:43:14.666Z,91.08
2023-07-29T06:44:14.587Z,91.18
2023-07-29T06:45:15.525Z,90.88
2023-07-29T06:46:14.612Z,90.94
2023-07-29T06:47:14.603Z,90.64
2023-07-29T06:48:14.573Z,90.44
2023-07-29T06:49:14.549Z,90.73
2023-07-29T06:50:15.510Z,90.73
2023-07-29T06:51:14.540Z,90.09
2023-07-29T06:52:14.496Z,89.99
2023-07-29T06:53:14.504Z,89.69
2023-07-29T06:54:14.467Z,89.29
2023-07-29T06:55:14.498Z,89.09
2023-07-29T06:56:15.420Z,88.84
2023-07-29T06:57:14.428Z,88.64
2023-07-29T06:58:14.435Z,88.44
2023-07-29T06:59:14.428Z,88.44
2023-07-29T07:00:14.476Z,88.34
2023-07-29T07:01:15.370Z,88.54
2023-07-29T07:02:14.453Z,88.34
2023-07-29T07:03:14.415Z,88.44
2023-07-29T07:04:14.360Z,88.54
2023-07-29T07:05:14.367Z,88.44
2023-07-29T07:06:14.350Z,88.30
2023-07-29T07:07:15.309Z,88.10
2023-07-29T07:08:14.295Z,88.10
2023-07-29T07:09:14.297Z,87.90
2023-07-29T07:10:14.293Z,87.40
2023-07-29T07:11:14.276Z,87.10
2023-07-29T07:12:14.262Z,87.40
2023-07-29T07:13:15.195Z,87.40
2023-07-29T07:14:14.196Z,87.60
2023-07-29T07:15:14.271Z,87.80
2023-07-29T07:16:14.236Z,87.70
2023-07-29T07:17:14.170Z,86.90
2023-07-29T07:18:15.091Z,87.20
2023-07-29T07:19:14.160Z,87.20
2023-07-29T07:20:14.222Z,87.50
2023-07-29T07:21:14.138Z,87.60
2023-07-29T07:22:14.122Z,87.40
2023-07-29T07:23:15.103Z,87.50
2023-07-29T07:24:14.109Z,87.20
2023-07-29T07:25:14.086Z,87.50
2023-07-29T07:26:14.125Z,87.30
2023-07-29T07:27:14.052Z,86.80
2023-07-29T07:28:15.251Z,86.66
2023-07-29T07:29:14.047Z,86.25
2023-07-29T07:30:14.023Z,86.25
2023-07-29T07:31:14.093Z,86.16
2023-07-29T07:32:13.967Z,86.35
2023-07-29T07:33:13.973Z,86.25
2023-07-29T07:34:14.930Z,85.91
2023-07-29T07:35:13.954Z,85.61
2023-07-29T07:36:13.970Z,85.51
2023-07-29T07:37:13.933Z,85.41
2023-07-29T07:38:13.925Z,85.41
2023-07-29T07:39:14.836Z,85.21
2023-07-29T07:40:13.897Z,85.21
2023-07-29T07:41:13.886Z,85.27
2023-07-29T07:42:13.851Z,85.17
2023-07-29T07:43:13.845Z,84.87
2023-07-29T07:44:14.737Z,84.57
2023-07-29T07:45:14.767Z,84.67
2023-07-29T07:46:13.894Z,84.87
2023-07-29T07:47:13.783Z,84.63
2023-07-29T07:48:13.761Z,84.53
2023-07-29T07:49:13.768Z,83.93
2023-07-29T07:50:13.744Z,83.89
2023-07-29T07:51:14.706Z,83.49
2023-07-29T07:52:13.737Z,83.59
2023-07-29T07:53:13.723Z,83.39
2023-07-29T07:54:13.798Z,82.55
2023-07-29T07:55:13.676Z,82.65
2023-07-29T07:56:13.766Z,82.11
2023-07-29T07:57:14.633Z,81.12
2023-07-29T07:58:13.673Z,81.21
2023-07-29T07:59:16.066Z,80.98
2023-07-29T08:00:13.627Z,80.47
2023-07-29T08:01:13.610Z,79.97
2023-07-29T08:02:13.701Z,79.24
2023-07-29T08:03:14.709Z,78.78
2023-07-29T08:04:13.560Z,78.64
2023-07-29T08:05:13.581Z,78.24
2023-07-29T08:06:13.539Z,78.14
2023-07-29T08:07:13.528Z,78.14
2023-07-29T08:08:14.497Z,78.41
2023-07-29T08:09:13.563Z,78.11
2023-07-29T08:10:13.556Z,77.31
2023-07-29T08:11:13.551Z,77.21
2023-07-29T08:12:13.555Z,77.11
2023-07-29T08:13:13.465Z,76.91
2023-07-29T08:14:19.678Z,77.11
2023-07-29T08:15:13.438Z,77.31
2023-07-29T08:16:13.465Z,77.11
2023-07-29T08:17:13.454Z,77.55
2023-07-29T08:18:13.386Z,77.55
2023-07-29T08:19:22.461Z,77.84
2023-07-29T08:20:13.359Z,78.24
2023-07-29T08:21:13.417Z,78.44
2023-07-29T08:22:13.329Z,78.48
2023-07-29T08:23:13.339Z,78.48
2023-07-29T08:24:14.460Z,78.68
2023-07-29T08:25:13.294Z,78.54
2023-07-29T08:26:13.299Z,78.44
2023-07-29T08:27:13.275Z,78.14
2023-07-29T08:28:13.306Z,77.94
2023-07-29T08:29:14.199Z,77.74
2023-07-29T08:30:13.225Z,77.94
2023-07-29T08:31:13.263Z,78.14
2023-07-29T08:32:13.243Z,77.84
2023-07-29T08:33:13.273Z,78.14
2023-07-29T08:34:13.230Z,78.34
2023-07-29T08:35:14.205Z,77.94
2023-07-29T08:36:13.158Z,78.04
2023-07-29T08:37:13.155Z,77.84
2023-07-29T08:38:13.153Z,77.44
2023-07-29T08:39:13.189Z,77.25
2023-07-29T08:40:14.120Z,76.84
2023-07-29T08:41:13.083Z,77.55
2023-07-29T08:42:13.140Z,77.55
2023-07-29T08:43:13.065Z,77.38
2023-07-29T08:44:13.467Z,77.68
2023-07-29T08:45:13.081Z,77.78
2023-07-29T08:46:19.270Z,78.08
2023-07-29T08:47:13.096Z,78.28
2023-07-29T08:48:12.987Z,78.38
2023-07-29T08:49:13.000Z,78.48
2023-07-29T08:50:15.315Z,78.48
2023-07-29T08:51:12.977Z,78.68
2023-07-29T08:52:13.923Z,78.88
2023-07-29T08:53:12.946Z,78.98
2023-07-29T08:54:12.938Z,78.88
2023-07-29T08:55:12.885Z,78.88
2023-07-29T08:56:12.988Z,78.48
2023-07-29T08:57:13.862Z,78.38
2023-07-29T08:58:12.929Z,77.88
2023-07-29T08:59:12.963Z,77.55
2023-07-29T09:00:12.881Z,77.34
2023-07-29T09:01:12.849Z,77.14
2023-07-29T09:02:13.909Z,77.14
2023-07-29T09:03:12.922Z,76.65
2023-07-29T09:04:12.815Z,76.84
2023-07-29T09:05:12.799Z,76.91
2023-07-29T09:06:12.765Z,76.31
2023-07-29T09:07:13.748Z,76.01
2023-07-29T09:08:12.806Z,76.01
2023-07-29T09:09:12.725Z,75.91
2023-07-29T09:10:12.756Z,75.57
2023-07-29T09:11:12.697Z,75.67
2023-07-29T09:12:12.685Z,75.78
2023-07-29T09:13:13.705Z,75.87
2023-07-29T09:14:12.678Z,76.01
2023-07-29T09:15:12.664Z,76.11
2023-07-29T09:16:12.666Z,76.07
2023-07-29T09:17:12.757Z,76.21
2023-07-29T09:18:13.671Z,76.21
2023-07-29T09:19:12.592Z,76.61
2023-07-29T09:20:12.614Z,76.61
2023-07-29T09:21:12.597Z,76.61
2023-07-29T09:22:12.571Z,76.11
2023-07-29T09:23:18.809Z,76.21
2023-07-29T09:24:12.530Z,75.97
2023-07-29T09:25:12.553Z,75.87
2023-07-29T09:26:12.635Z,75.64
2023-07-29T09:27:12.510Z,74.84
2023-07-29T09:28:12.553Z,74.74
2023-07-29T09:29:13.522Z,74.51
2023-07-29T09:30:12.445Z,74.01
2023-07-29T09:31:12.533Z,73.71
2023-07-29T09:32:12.492Z,73.51
2023-07-29T09:33:12.542Z,73.61
2023-07-29T09:34:18.665Z,73.77
2023-07-29T09:35:12.461Z,73.28
2023-07-29T09:36:12.423Z,73.41
2023-07-29T09:37:12.374Z,73.38
2023-07-29T09:38:12.400Z,73.61
2023-07-29T09:39:12.373Z,73.71
2023-07-29T09:40:13.292Z,73.91
2023-07-29T09:41:12.304Z,74.11
2023-07-29T09:42:12.335Z,74.21
2023-07-29T09:43:12.300Z,73.91
2023-07-29T09:44:12.333Z,74.01
2023-07-29T09:45:13.252Z,74.01
2023-07-29T09:46:12.302Z,73.61
2023-07-29T09:47:12.267Z,73.91
2023-07-29T09:48:13.203Z,74.01
2023-07-29T09:49:12.224Z,74.21
2023-07-29T09:50:12.239Z,74.01
2023-07-29T09:51:13.189Z,73.61
2023-07-29T09:52:12.160Z,73.21
2023-07-29T09:53:12.143Z,73.51
2023-07-29T09:54:12.152Z,73.61
2023-07-29T09:55:12.194Z,73.41
2023-07-29T09:56:13.117Z,73.18
2023-07-29T09:57:12.211Z,73.28
2023-07-29T09:58:12.179Z,72.78
2023-07-29T09:59:12.173Z,72.68
2023-07-29T10:00:12.091Z,72.74
2023-07-29T10:01:12.118Z,72.74
2023-07-29T10:02:18.463Z,72.74
2023-07-29T10:03:12.181Z,72.44
2023-07-29T10:04:13.795Z,72.34
2023-07-29T10:05:11.998Z,72.14
2023-07-29T10:06:12.016Z,72.34
2023-07-29T10:07:12.035Z,71.95
2023-07-29T10:08:18.258Z,71.91
2023-07-29T10:09:11.960Z,72.05
2023-07-29T10:10:12.013Z,71.61
2023-07-29T10:11:11.953Z,71.72
2023-07-29T10:12:11.949Z,71.42
2023-07-29T10:13:12.905Z,71.61
2023-07-29T10:14:11.891Z,71.31
2023-07-29T10:15:11.888Z,70.32
2023-07-29T10:16:11.947Z,70.92
2023-07-29T10:17:11.859Z,70.72
2023-07-29T10:18:13.015Z,71.01
2023-07-29T10:19:11.913Z,70.82
2023-07-29T10:20:11.841Z,70.82
2023-07-29T10:21:11.813Z,70.92
2023-07-29T10:22:11.800Z,71.42
2023-07-29T10:23:12.810Z,70.92
2023-07-29T10:24:11.785Z,70.65
2023-07-29T10:25:11.759Z,70.36
2023-07-29T10:26:11.785Z,70.65
2023-07-29T10:27:12.767Z,70.62
2023-07-29T10:28:11.744Z,70.72
2023-07-29T10:29:12.748Z,70.52
2023-07-29T10:30:11.739Z,69.89
2023-07-29T10:31:11.681Z,69.89
2023-07-29T10:32:11.661Z,69.56
2023-07-29T10:33:11.867Z,68.86
2023-07-29T10:34:12.714Z,68.46
2023-07-29T10:35:11.699Z,68.27
2023-07-29T10:36:11.676Z,68.27
2023-07-29T10:37:11.609Z,68.37
2023-07-29T10:38:11.636Z,68.57
2023-07-29T10:39:11.606Z,69.09
2023-07-29T10:40:12.617Z,68.70
2023-07-29T10:41:11.571Z,68.70
2023-07-29T10:42:11.591Z,68.80
2023-07-29T10:43:11.642Z,68.80
2023-07-29T10:44:11.546Z,68.80
2023-07-29T10:45:17.819Z,68.70
2023-07-29T10:46:16.326Z,68.80
2023-07-29T10:47:13.093Z,69.09
2023-07-29T10:48:11.540Z,69.09
2023-07-29T10:49:11.505Z,69.29
2023-07-29T10:50:11.529Z,69.49
2023-07-29T10:51:12.466Z,69.49
2023-07-29T10:52:11.445Z,69.59
2023-07-29T10:53:11.464Z,69.92
2023-07-29T10:54:11.457Z,69.82
2023-07-29T10:55:11.436Z,69.62
2023-07-29T10:56:12.094Z,69.82
2023-07-29T10:57:17.656Z,70.22
2023-07-29T10:58:11.419Z,70.03
2023-07-29T10:59:11.362Z,70.42
2023-07-29T11:00:11.337Z,70.06
2023-07-29T11:01:11.366Z,70.15
2023-07-29T11:02:17.574Z,70.56
2023-07-29T11:03:11.413Z,70.29
2023-07-29T11:04:11.358Z,70.68
2023-07-29T11:05:11.328Z,70.19
2023-07-29T11:06:12.214Z,70.12
2023-07-29T11:07:12.229Z,72.22
2023-07-29T11:08:11.348Z,73.85
2023-07-29T11:09:11.255Z,78.67
2023-07-29T11:10:11.242Z,84.13
2023-07-29T11:13:46.353Z,92.90
2023-07-29T11:14:07.548Z,95.70
2023-07-29T11:15:07.506Z,97.75
2023-07-29T11:16:07.855Z,99.31
2023-07-29T11:17:08.747Z,99.99
2023-07-29T11:18:13.767Z,99.99
2023-07-29T11:19:07.473Z,99.99
2023-07-29T11:20:07.561Z,99.99
2023-07-29T11:21:07.403Z,99.99
2023-07-29T11:22:07.404Z,99.99
2023-07-29T11:23:08.436Z,99.99
2023-07-29T11:24:07.417Z,99.99
2023-07-29T11:25:07.377Z,99.99
2023-07-29T11:26:07.546Z,99.99
2023-07-29T11:27:07.376Z,99.99
2023-07-29T11:28:13.795Z,99.99
2023-07-29T11:29:07.313Z,99.99
2023-07-29T11:30:07.305Z,99.99
2023-07-29T11:31:07.720Z,99.99
2023-07-29T11:32:07.273Z,99.99
2023-07-29T11:33:08.378Z,99.99
2023-07-29T11:34:07.249Z,99.99
2023-07-29T11:35:07.249Z,99.99
2023-07-29T11:36:07.373Z,99.99
2023-07-29T11:37:07.225Z,99.99
2023-07-29T11:38:13.460Z,99.99
2023-07-29T11:39:07.353Z,99.99
2023-07-29T11:40:07.164Z,99.99
2023-07-29T11:41:07.133Z,99.99
2023-07-29T11:42:07.165Z,99.99
2023-07-29T11:43:13.390Z,99.99
2023-07-29T11:44:07.104Z,99.99
2023-07-29T11:45:07.150Z,99.99
2023-07-29T11:46:07.219Z,99.99
2023-07-29T11:47:07.086Z,99.99
2023-07-29T11:48:08.056Z,99.99
2023-07-29T11:49:07.200Z,99.99
2023-07-29T11:50:07.040Z,99.99
2023-07-29T11:51:07.042Z,99.99
2023-07-29T11:52:07.058Z,99.99
2023-07-29T11:53:07.955Z,99.99
2023-07-29T11:54:07.033Z,99.99
2023-07-29T11:55:06.975Z,99.99
2023-07-29T11:56:06.932Z,99.99
2023-07-29T11:57:07.016Z,99.99
2023-07-29T11:58:13.231Z,99.99
2023-07-29T11:59:06.899Z,99.99
2023-07-29T12:00:06.905Z,99.99
2023-07-29T12:01:06.937Z,99.99
2023-07-29T12:02:06.875Z,99.99
2023-07-29T12:03:07.042Z,99.99
2023-07-29T12:04:13.157Z,99.99
2023-07-29T12:05:06.843Z,99.99
2023-07-29T12:06:07.034Z,99.99
2023-07-29T12:07:06.826Z,99.99
2023-07-29T12:08:06.805Z,99.99
2023-07-29T12:09:07.045Z,99.99
2023-07-29T12:10:13.134Z,99.99
2023-07-29T12:11:06.790Z,99.99
2023-07-29T12:12:06.794Z,99.99
2023-07-29T12:13:06.837Z,99.99
2023-07-29T12:14:06.748Z,99.99
2023-07-29T12:15:07.722Z,99.99
2023-07-29T12:16:06.947Z,99.99
2023-07-29T12:17:06.747Z,99.99
2023-07-29T12:18:06.787Z,99.99
2023-07-29T12:19:06.870Z,99.99
2023-07-29T12:20:12.944Z,99.99
2023-07-29T12:21:06.678Z,99.99
2023-07-29T12:22:06.667Z,99.99
2023-07-29T12:23:06.591Z,99.99
2023-07-29T12:24:06.613Z,99.99
2023-07-29T12:25:06.658Z,99.99
2023-07-29T12:26:12.813Z,99.99
2023-07-29T12:27:06.560Z,99.99
2023-07-29T12:28:06.625Z,99.99
2023-07-29T12:29:08.473Z,99.99
2023-07-29T12:30:06.640Z,99.99
2023-07-29T12:31:06.568Z,99.99
2023-07-29T12:32:07.461Z,99.99
2023-07-29T12:33:06.574Z,99.99
2023-07-29T12:34:06.472Z,99.99
2023-07-29T12:35:06.453Z,99.99
2023-07-29T12:36:06.457Z,99.99
2023-07-29T12:37:06.466Z,99.99
2023-07-29T12:38:12.814Z,99.99
2023-07-29T12:39:06.415Z,99.99
2023-07-29T12:40:06.413Z,99.99
2023-07-29T12:41:06.426Z,99.99
2023-07-29T12:42:06.399Z,99.99
2023-07-29T12:43:12.639Z,99.99
2023-07-29T12:44:06.359Z,98.99
2023-07-29T12:45:06.388Z,96.68
2023-07-29T12:46:06.455Z,96.08
2023-07-29T12:47:06.348Z,95.73
2023-07-29T12:48:06.327Z,95.84
2023-07-29T12:49:07.258Z,95.55
2023-07-29T12:50:06.289Z,93.01
2023-07-29T12:51:06.325Z,90.32
2023-07-29T12:52:06.232Z,90.36
2023-07-29T12:53:06.263Z,91.96
2023-07-29T12:54:12.451Z,91.22
2023-07-29T12:55:06.215Z,92.61
2023-07-29T12:56:06.184Z,92.17
2023-07-29T12:57:06.192Z,89.78